Time;durP1;ratioP1;P1;durP2;ratioP2;P2;SDS_P1;SDS_P2;PMS_P1;PMS_P2;Temp;Humidity;BMP_temperature;BMP_pressure;BME280_temperature;BME280_humidity;BME280_pressure;Samples;Min_cycle;Max_cycle;Signal;HPM_P1;HPM_P2
2021/06/16 00:02:21;;;;;;;4.45;3.45;;;;;;;;;;4360311;32;20655;-56
2021/06/16 00:04:47;;;;;;;6.12;3.55;;;;;;;;;;4360292;32;20304;-57
2021/06/16 00:07:13;;;;;;;3.75;3.15;;;;;;;;;;4374096;32;20214;-56
2021/06/16 00:09:39;;;;;;;4.57;3.83;;;;;;;;;;4374908;32;20602;-56
2021/06/16 00:12:05;;;;;;;3.80;3.45;;;;;;;;;;4374918;32;20256;-56
2021/06/16 00:14:30;;;;;;;4.12;3.72;;;;;;;;;;4374631;32;20658;-57
2021/06/16 00:16:56;;;;;;;5.85;3.85;;;;;;;;;;4374719;32;20237;-56
2021/06/16 00:19:21;;;;;;;5.35;3.97;;;;;;;;;;4374957;32;20236;-57
2021/06/16 00:21:47;;;;;;;5.43;3.95;;;;;;;;;;4373705;32;20226;-57
2021/06/16 00:24:14;;;;;;;4.10;3.53;;;;;;;;;;4374660;32;20516;-57
2021/06/16 00:26:42;;;;;;;3.85;3.50;;;;;;;;;;4385771;32;20225;-57
2021/06/16 00:29:07;;;;;;;3.97;3.55;;;;;;;;;;4374654;32;20259;-57
2021/06/16 00:31:33;;;;;;;4.65;4.15;;;;;;;;;;4370294;32;20636;-57
2021/06/16 00:33:58;;;;;;;4.75;4.12;;;;;;;;;;4374530;32;20540;-57
2021/06/16 00:36:24;;;;;;;5.20;3.80;;;;;;;;;;4374823;32;20219;-57
2021/06/16 00:38:49;;;;;;;6.37;4.00;;;;;;;;;;4374634;32;20268;-57
2021/06/16 00:41:15;;;;;;;5.53;3.70;;;;;;;;;;4374495;32;20222;-57
2021/06/16 00:43:40;;;;;;;7.28;4.43;;;;;;;;;;4373177;32;20276;-57
2021/06/16 00:46:05;;;;;;;4.30;3.90;;;;;;;;;;4374306;32;20226;-57
2021/06/16 00:48:31;;;;;;;5.18;3.53;;;;;;;;;;4374195;32;20631;-57
2021/06/16 00:50:56;;;;;;;7.00;3.72;;;;;;;;;;4374095;32;20269;-57
2021/06/16 00:53:22;;;;;;;10.68;4.20;;;;;;;;;;4374191;32;20267;-56
2021/06/16 00:55:47;;;;;;;7.70;3.83;;;;;;;;;;4373855;32;20274;-56
2021/06/16 00:58:13;;;;;;;4.78;4.07;;;;;;;;;;4373958;32;20315;-56
2021/06/16 01:01:08;;;;;;;4.05;3.65;;;;;;;;;;4373914;32;20273;-57
2021/06/16 01:03:33;;;;;;;4.87;3.47;;;;;;;;;;4363983;32;20692;-56
2021/06/16 01:06:33;;;;;;;3.83;3.50;;;;;;;;;;4373825;32;20297;-57
2021/06/16 01:09:08;;;;;;;9.38;3.25;;;;;;;;;;4368497;32;20230;-56
2021/06/16 01:11:44;;;;;;;6.90;3.25;;;;;;;;;;4374375;32;20792;-56
2021/06/16 01:14:13;;;;;;;6.22;3.50;;;;;;;;;;4373062;32;20532;-57
2021/06/16 01:16:42;;;;;;;5.07;3.58;;;;;;;;;;4374296;32;20665;-56
2021/06/16 01:19:16;;;;;;;6.47;3.50;;;;;;;;;;4374218;32;20228;-56
2021/06/16 01:21:46;;;;;;;3.78;3.33;;;;;;;;;;4374360;32;20335;-56
2021/06/16 01:24:18;;;;;;;5.62;3.47;;;;;;;;;;4374188;32;20211;-56
2021/06/16 01:26:46;;;;;;;3.80;3.50;;;;;;;;;;4374313;32;20344;-57
2021/06/16 01:29:24;;;;;;;3.92;3.62;;;;;;;;;;4375012;32;20190;-56
2021/06/16 01:31:51;;;;;;;3.78;3.47;;;;;;;;;;4369840;32;20283;-56
2021/06/16 01:34:20;;;;;;;5.93;4.10;;;;;;;;;;4374123;32;20260;-57
2021/06/16 01:36:46;;;;;;;6.07;3.25;;;;;;;;;;4374085;32;20252;-57
2021/06/16 01:39:14;;;;;;;6.65;4.40;;;;;;;;;;4373764;32;20224;-57
2021/06/16 01:41:40;;;;;;;7.40;4.57;;;;;;;;;;4373553;32;20280;-57
2021/06/16 01:44:07;;;;;;;6.80;4.40;;;;;;;;;;4373348;32;20334;-57
2021/06/16 01:46:32;;;;;;;5.80;4.57;;;;;;;;;;4372342;32;20276;-57
2021/06/16 01:48:59;;;;;;;8.80;6.43;;;;;;;;;;4373747;32;20222;-55
2021/06/16 01:51:25;;;;;;;18.98;6.28;;;;;;;;;;4373649;32;20234;-56
2021/06/16 01:53:52;;;;;;;9.43;4.82;;;;;;;;;;4373602;32;20242;-56
2021/06/16 01:56:19;;;;;;;5.55;4.57;;;;;;;;;;4372514;32;20348;-56
2021/06/16 01:58:46;;;;;;;8.32;5.22;;;;;;;;;;4373774;32;20244;-56
2021/06/16 02:01:13;;;;;;;6.03;5.37;;;;;;;;;;4373656;32;20257;-56
2021/06/16 02:03:39;;;;;;;7.40;5.43;;;;;;;;;;4373756;32;20214;-56
2021/06/16 02:06:05;;;;;;;5.72;4.95;;;;;;;;;;4373224;32;20256;-57
2021/06/16 02:08:33;;;;;;;7.30;5.05;;;;;;;;;;4373093;32;20606;-57
2021/06/16 02:11:01;;;;;;;5.53;4.97;;;;;;;;;;4373143;32;20218;-57
2021/06/16 02:13:39;;;;;;;10.15;5.03;;;;;;;;;;4372495;32;20214;-57
2021/06/16 02:16:07;;;;;;;5.05;4.55;;;;;;;;;;4373163;32;20317;-56
2021/06/16 02:18:38;;;;;;;4.90;4.32;;;;;;;;;;4372998;32;20586;-56
2021/06/16 02:21:03;;;;;;;5.07;4.60;;;;;;;;;;4373305;32;20665;-57
2021/06/16 02:23:29;;;;;;;6.22;4.93;;;;;;;;;;4372893;32;20230;-56
2021/06/16 02:25:57;;;;;;;4.55;4.15;;;;;;;;;;4372902;32;20689;-56
2021/06/16 02:28:22;;;;;;;10.48;4.90;;;;;;;;;;4373517;32;20673;-56
2021/06/16 02:30:48;;;;;;;5.20;4.70;;;;;;;;;;4368653;32;20319;-56
2021/06/16 02:33:15;;;;;;;5.70;4.55;;;;;;;;;;4372985;32;20278;-56
2021/06/16 02:35:40;;;;;;;4.50;4.10;;;;;;;;;;4373121;32;20202;-56
2021/06/16 02:38:16;;;;;;;7.20;3.87;;;;;;;;;;4372452;32;20667;-56
2021/06/16 02:40:42;;;;;;;4.50;4.07;;;;;;;;;;4372825;32;20256;-56
2021/06/16 02:43:08;;;;;;;6.00;3.97;;;;;;;;;;4372663;32;20285;-56
2021/06/16 02:45:36;;;;;;;5.00;4.43;;;;;;;;;;4372883;32;20532;-56
2021/06/16 02:48:05;;;;;;;6.25;4.10;;;;;;;;;;4372894;32;20627;-56
2021/06/16 02:50:30;;;;;;;8.80;4.03;;;;;;;;;;4372806;32;20206;-55
2021/06/16 02:53:01;;;;;;;5.68;3.60;;;;;;;;;;4373161;32;20301;-56
2021/06/16 02:55:28;;;;;;;8.35;5.43;;;;;;;;;;4372813;32;20194;-56
2021/06/16 02:57:55;;;;;;;5.72;4.43;;;;;;;;;;4372802;32;20450;-56
2021/06/16 03:00:22;;;;;;;4.90;4.47;;;;;;;;;;4372839;32;20319;-56
2021/06/16 03:02:49;;;;;;;4.20;3.78;;;;;;;;;;4373043;32;20258;-57
2021/06/16 03:05:20;;;;;;;4.28;3.75;;;;;;;;;;4372740;32;20639;-56
2021/06/16 03:07:46;;;;;;;3.95;3.55;;;;;;;;;;4371272;32;20238;-56
2021/06/16 03:10:14;;;;;;;6.80;3.78;;;;;;;;;;4372457;32;20210;-56
2021/06/16 03:12:41;;;;;;;5.28;4.00;;;;;;;;;;4372559;32;20591;-56
2021/06/16 03:15:07;;;;;;;4.45;3.95;;;;;;;;;;4372515;32;20210;-56
2021/06/16 03:17:33;;;;;;;7.37;4.05;;;;;;;;;;4361615;32;20287;-56
2021/06/16 03:20:00;;;;;;;6.22;4.00;;;;;;;;;;4357471;32;20214;-56
2021/06/16 03:22:25;;;;;;;7.68;4.57;;;;;;;;;;4356563;33;20226;-56
2021/06/16 03:24:52;;;;;;;4.25;3.85;;;;;;;;;;4359079;32;20229;-56
2021/06/16 03:27:22;;;;;;;5.62;4.30;;;;;;;;;;4360854;32;20559;-56
2021/06/16 03:29:51;;;;;;;4.80;4.12;;;;;;;;;;4361010;32;20206;-57
2021/06/16 03:32:19;;;;;;;4.65;4.25;;;;;;;;;;4364019;32;20218;-57
2021/06/16 03:34:45;;;;;;;7.32;4.45;;;;;;;;;;4360395;32;20199;-57
2021/06/16 03:37:12;;;;;;;8.52;4.87;;;;;;;;;;4360826;32;20229;-57
2021/06/16 03:39:38;;;;;;;10.45;4.35;;;;;;;;;;4360620;32;20214;-57
2021/06/16 03:42:05;;;;;;;8.40;4.87;;;;;;;;;;4360736;32;20387;-57
2021/06/16 03:44:34;;;;;;;7.78;5.95;;;;;;;;;;4371459;32;20226;-57
2021/06/16 03:47:01;;;;;;;15.65;5.87;;;;;;;;;;4360441;32;20289;-57
2021/06/16 03:49:28;;;;;;;10.10;5.37;;;;;;;;;;4360187;32;20225;-57
2021/06/16 03:51:55;;;;;;;4.87;4.00;;;;;;;;;;4360407;32;20306;-57
2021/06/16 03:54:21;;;;;;;5.10;3.97;;;;;;;;;;4360283;32;20262;-58
2021/06/16 03:56:47;;;;;;;4.47;3.62;;;;;;;;;;4359978;32;20257;-57
2021/06/16 03:59:14;;;;;;;6.70;4.15;;;;;;;;;;4359998;32;20265;-56
2021/06/16 04:01:41;;;;;;;9.80;5.03;;;;;;;;;;4360067;32;20655;-58
2021/06/16 04:04:07;;;;;;;6.65;5.18;;;;;;;;;;4358676;32;20280;-58
2021/06/16 04:06:40;;;;;;;11.10;4.60;;;;;;;;;;4361757;32;20222;-57
2021/06/16 04:09:06;;;;;;;6.68;4.97;;;;;;;;;;4374258;32;20647;-57
2021/06/16 04:11:32;;;;;;;4.60;3.72;;;;;;;;;;4374874;32;20260;-56
2021/06/16 04:13:59;;;;;;;14.10;4.22;;;;;;;;;;4374519;32;20218;-56
2021/06/16 04:16:26;;;;;;;5.25;4.07;;;;;;;;;;4372061;32;20222;-56
2021/06/16 04:18:52;;;;;;;5.90;5.00;;;;;;;;;;4360024;32;20281;-56
2021/06/16 04:21:18;;;;;;;10.90;6.28;;;;;;;;;;4359411;32;20293;-57
2021/06/16 04:23:43;;;;;;;8.35;4.30;;;;;;;;;;4370849;32;20678;-57
2021/06/16 04:26:09;;;;;;;6.82;3.72;;;;;;;;;;4359691;32;20226;-58
2021/06/16 04:28:34;;;;;;;5.60;4.18;;;;;;;;;;4371017;32;20238;-57
2021/06/16 04:31:00;;;;;;;15.38;6.40;;;;;;;;;;4363970;32;20715;-58
2021/06/16 04:33:26;;;;;;;9.27;4.35;;;;;;;;;;4359853;32;20587;-57
2021/06/16 04:35:52;;;;;;;12.52;4.95;;;;;;;;;;4359888;32;20236;-56
2021/06/16 04:38:17;;;;;;;11.27;4.85;;;;;;;;;;4359900;32;20636;-57
2021/06/16 04:40:43;;;;;;;12.90;4.87;;;;;;;;;;4359452;32;20293;-58
2021/06/16 04:43:09;;;;;;;9.93;4.55;;;;;;;;;;4359592;32;20622;-57
2021/06/16 04:45:34;;;;;;;10.73;5.00;;;;;;;;;;4359391;32;20315;-57
2021/06/16 04:48:00;;;;;;;10.00;5.12;;;;;;;;;;4358984;32;20600;-56
2021/06/16 04:50:25;;;;;;;7.43;5.22;;;;;;;;;;4370517;32;20301;-58
2021/06/16 04:52:51;;;;;;;6.55;4.12;;;;;;;;;;4359281;32;20580;-56
2021/06/16 04:55:17;;;;;;;6.78;3.40;;;;;;;;;;4359004;32;20249;-56
2021/06/16 04:57:42;;;;;;;6.47;3.50;;;;;;;;;;4359461;32;20301;-57
2021/06/16 05:00:10;;;;;;;5.70;3.20;;;;;;;;;;4359247;32;20190;-57
2021/06/16 05:02:36;;;;;;;6.65;3.15;;;;;;;;;;4359311;32;20494;-57
2021/06/16 05:05:03;;;;;;;8.88;2.87;;;;;;;;;;4359219;32;20337;-57
2021/06/16 05:07:28;;;;;;;7.32;3.37;;;;;;;;;;4365846;32;20376;-57
2021/06/16 05:09:54;;;;;;;5.50;2.75;;;;;;;;;;4373658;32;20260;-57
2021/06/16 05:12:19;;;;;;;8.70;3.83;;;;;;;;;;4385044;32;20643;-58
2021/06/16 05:14:45;;;;;;;9.10;2.90;;;;;;;;;;4373649;32;20198;-58
2021/06/16 05:17:10;;;;;;;10.82;3.45;;;;;;;;;;4377416;32;20246;-58
2021/06/16 05:19:36;;;;;;;9.90;3.10;;;;;;;;;;4358496;32;20240;-58
2021/06/16 05:22:09;;;;;;;4.85;2.67;;;;;;;;;;4358602;32;20312;-58
2021/06/16 05:24:35;;;;;;;5.10;2.83;;;;;;;;;;4358539;32;20236;-58
2021/06/16 05:27:01;;;;;;;5.55;2.58;;;;;;;;;;4370174;32;20238;-57
2021/06/16 05:29:26;;;;;;;7.57;3.10;;;;;;;;;;4357551;32;20679;-58
2021/06/16 05:31:52;;;;;;;9.70;2.62;;;;;;;;;;4362937;32;20230;-57
2021/06/16 05:34:17;;;;;;;9.48;3.22;;;;;;;;;;4358429;32;20228;-56
2021/06/16 05:36:42;;;;;;;4.87;2.53;;;;;;;;;;4358648;32;20713;-57
2021/06/16 05:39:08;;;;;;;4.47;2.72;;;;;;;;;;4357947;32;20199;-57
2021/06/16 05:41:33;;;;;;;3.65;2.55;;;;;;;;;;4356863;32;20321;-57
2021/06/16 05:43:59;;;;;;;3.78;2.50;;;;;;;;;;4356340;32;21078;-57
2021/06/16 05:46:24;;;;;;;7.10;2.53;;;;;;;;;;4355930;32;20572;-57
2021/06/16 05:48:50;;;;;;;3.30;2.35;;;;;;;;;;4355710;32;20247;-56
2021/06/16 05:51:15;;;;;;;3.78;2.90;;;;;;;;;;4356419;32;20226;-56
2021/06/16 05:53:41;;;;;;;8.88;3.25;;;;;;;;;;4356049;32;20296;-56
2021/06/16 05:56:06;;;;;;;5.50;2.37;;;;;;;;;;4356184;32;20254;-57
2021/06/16 05:58:32;;;;;;;3.35;2.40;;;;;;;;;;4356102;32;20202;-58
2021/06/16 06:00:57;;;;;;;5.05;2.30;;;;;;;;;;4356095;32;20289;-57
2021/06/16 06:03:23;;;;;;;6.25;3.22;;;;;;;;;;4357820;32;20264;-57
2021/06/16 06:05:48;;;;;;;4.22;2.35;;;;;;;;;;4358425;32;20297;-57
2021/06/16 06:08:13;;;;;;;3.67;2.65;;;;;;;;;;4369642;32;20264;-57
2021/06/16 06:10:39;;;;;;;3.25;2.05;;;;;;;;;;4372401;32;20423;-57
2021/06/16 06:13:04;;;;;;;5.90;2.35;;;;;;;;;;4371435;32;20638;-57
2021/06/16 06:15:30;;;;;;;6.82;2.87;;;;;;;;;;4372932;32;20372;-57
2021/06/16 06:17:56;;;;;;;4.78;2.35;;;;;;;;;;4372690;32;20226;-57
2021/06/16 06:20:21;;;;;;;8.75;2.62;;;;;;;;;;4383956;32;20331;-59
2021/06/16 06:22:47;;;;;;;7.97;3.00;;;;;;;;;;4384265;32;20253;-57
2021/06/16 06:25:12;;;;;;;5.62;2.15;;;;;;;;;;4383702;32;20260;-57
2021/06/16 06:27:39;;;;;;;10.38;3.08;;;;;;;;;;4372664;32;20359;-57
2021/06/16 06:30:06;;;;;;;5.28;2.80;;;;;;;;;;4370487;32;20606;-58
2021/06/16 06:32:31;;;;;;;2.92;2.10;;;;;;;;;;4371028;32;20234;-57
2021/06/16 06:34:57;;;;;;;7.70;2.83;;;;;;;;;;4371481;32;20276;-57
2021/06/16 06:37:22;;;;;;;5.35;2.62;;;;;;;;;;4372780;32;20411;-59
2021/06/16 06:39:49;;;;;;;5.60;2.03;;;;;;;;;;4366088;32;20235;-57
2021/06/16 06:42:16;;;;;;;4.05;1.95;;;;;;;;;;4357737;32;20292;-57
2021/06/16 06:44:41;;;;;;;3.28;2.28;;;;;;;;;;4358083;32;20202;-58
2021/06/16 06:47:07;;;;;;;10.75;2.65;;;;;;;;;;4358097;32;20214;-57
2021/06/16 06:49:32;;;;;;;7.53;2.28;;;;;;;;;;4366882;32;20210;-57
2021/06/16 06:51:58;;;;;;;3.75;2.60;;;;;;;;;;4372631;32;20540;-57
2021/06/16 06:54:23;;;;;;;2.80;2.30;;;;;;;;;;4372566;32;20981;-58
2021/06/16 06:56:49;;;;;;;4.82;2.10;;;;;;;;;;4372937;32;20348;-58
2021/06/16 06:59:14;;;;;;;3.25;2.58;;;;;;;;;;4372400;32;20221;-58
2021/06/16 07:01:40;;;;;;;5.07;2.70;;;;;;;;;;4372551;32;20651;-57
2021/06/16 07:04:05;;;;;;;4.90;2.25;;;;;;;;;;4372289;32;20264;-57
2021/06/16 07:06:31;;;;;;;3.85;3.03;;;;;;;;;;4372681;32;20218;-57
2021/06/16 07:08:58;;;;;;;5.32;2.50;;;;;;;;;;4371907;32;20240;-57
2021/06/16 07:11:24;;;;;;;5.62;2.75;;;;;;;;;;4372574;32;20383;-58
2021/06/16 07:13:49;;;;;;;4.50;2.70;;;;;;;;;;4372184;32;20209;-58
2021/06/16 07:16:15;;;;;;;3.12;2.22;;;;;;;;;;4371055;32;20256;-58
2021/06/16 07:18:40;;;;;;;3.10;2.58;;;;;;;;;;4357642;33;20241;-58
2021/06/16 07:21:06;;;;;;;4.22;2.30;;;;;;;;;;4359412;32;20234;-57
2021/06/16 07:23:32;;;;;;;5.50;2.17;;;;;;;;;;4357646;32;20214;-58
2021/06/16 07:25:57;;;;;;;2.78;2.10;;;;;;;;;;4357814;32;20293;-57
2021/06/16 07:28:23;;;;;;;4.93;2.00;;;;;;;;;;4357587;33;20206;-58
2021/06/16 07:30:48;;;;;;;4.05;2.40;;;;;;;;;;4361556;32;20284;-58
2021/06/16 07:33:14;;;;;;;5.25;2.60;;;;;;;;;;4357442;33;20292;-58
2021/06/16 07:35:39;;;;;;;5.00;2.67;;;;;;;;;;4357517;33;20274;-57
2021/06/16 07:38:05;;;;;;;6.03;2.60;;;;;;;;;;4357280;33;20842;-57
2021/06/16 07:40:30;;;;;;;4.18;2.25;;;;;;;;;;4357227;33;20292;-58
2021/06/16 07:42:56;;;;;;;2.62;2.03;;;;;;;;;;4357326;33;20273;-57
2021/06/16 07:45:21;;;;;;;7.12;2.30;;;;;;;;;;4357092;33;20417;-57
2021/06/16 07:47:47;;;;;;;4.28;2.00;;;;;;;;;;4357453;32;20545;-58
2021/06/16 07:50:13;;;;;;;5.90;2.40;;;;;;;;;;4356432;33;20268;-58
2021/06/16 07:52:39;;;;;;;6.43;2.28;;;;;;;;;;4357047;33;20277;-58
2021/06/16 07:55:06;;;;;;;6.28;2.47;;;;;;;;;;4356769;33;20207;-58
2021/06/16 07:57:31;;;;;;;3.78;2.30;;;;;;;;;;4357208;33;20306;-57
2021/06/16 07:59:57;;;;;;;3.55;1.80;;;;;;;;;;4357466;33;20232;-57
2021/06/16 08:02:22;;;;;;;8.55;2.25;;;;;;;;;;4357541;33;20312;-58
2021/06/16 08:04:48;;;;;;;3.53;2.42;;;;;;;;;;4356033;33;20222;-57
2021/06/16 08:07:13;;;;;;;4.25;2.22;;;;;;;;;;4370359;32;20742;-58
2021/06/16 08:09:42;;;;;;;3.78;2.00;;;;;;;;;;4372020;32;20769;-58
2021/06/16 08:12:13;;;;;;;3.05;2.35;;;;;;;;;;4373909;32;20238;-57
2021/06/16 08:14:41;;;;;;;6.55;1.90;;;;;;;;;;4374796;32;20210;-57
2021/06/16 08:17:08;;;;;;;10.82;1.90;;;;;;;;;;4367541;32;20234;-57
2021/06/16 08:19:34;;;;;;;2.15;1.83;;;;;;;;;;4359547;32;20214;-58
2021/06/16 08:22:00;;;;;;;2.25;1.92;;;;;;;;;;4359274;32;20276;-57
2021/06/16 08:24:26;;;;;;;5.82;2.10;;;;;;;;;;4359334;32;20301;-57
2021/06/16 08:26:52;;;;;;;5.22;2.08;;;;;;;;;;4359850;32;20357;-57
2021/06/16 08:29:18;;;;;;;3.25;1.85;;;;;;;;;;4359440;32;20206;-57
2021/06/16 08:31:43;;;;;;;5.62;2.40;;;;;;;;;;4375273;32;20609;-57
2021/06/16 08:34:09;;;;;;;6.87;2.28;;;;;;;;;;4359501;32;20249;-57
2021/06/16 08:36:36;;;;;;;9.30;2.53;;;;;;;;;;4372955;32;20222;-57
2021/06/16 08:39:02;;;;;;;7.20;2.80;;;;;;;;;;4374039;32;20209;-57
2021/06/16 08:41:28;;;;;;;2.70;2.10;;;;;;;;;;4374306;32;20226;-58
2021/06/16 08:43:55;;;;;;;2.37;1.85;;;;;;;;;;4374154;32;20339;-57
2021/06/16 08:46:22;;;;;;;11.35;2.78;;;;;;;;;;4374009;32;20722;-58
2021/06/16 08:48:47;;;;;;;6.85;1.90;;;;;;;;;;4374676;32;20244;-57
2021/06/16 08:51:15;;;;;;;5.57;2.28;;;;;;;;;;4373800;32;20480;-57
2021/06/16 08:53:42;;;;;;;11.20;2.33;;;;;;;;;;4372642;32;20290;-57
2021/06/16 08:56:08;;;;;;;14.82;2.55;;;;;;;;;;4374131;32;20311;-57
2021/06/16 08:58:39;;;;;;;5.50;2.42;;;;;;;;;;4373097;32;20716;-57
2021/06/16 09:01:07;;;;;;;3.50;1.95;;;;;;;;;;4374421;32;20297;-57
2021/06/16 09:03:33;;;;;;;6.55;2.00;;;;;;;;;;4374364;32;20236;-57
2021/06/16 09:06:15;;;;;;;8.75;2.42;;;;;;;;;;4374333;32;20224;-57
2021/06/16 09:08:55;;;;;;;3.40;2.12;;;;;;;;;;4373406;32;20736;-58
2021/06/16 09:11:22;;;;;;;7.62;2.60;;;;;;;;;;4374227;32;20219;-57
2021/06/16 09:13:48;;;;;;;4.78;2.47;;;;;;;;;;4373625;32;20210;-58
2021/06/16 09:16:23;;;;;;;3.22;2.42;;;;;;;;;;4373901;32;20573;-58
2021/06/16 09:18:49;;;;;;;4.95;3.12;;;;;;;;;;4374087;32;20189;-57
2021/06/16 09:21:16;;;;;;;3.60;2.25;;;;;;;;;;4373374;32;20222;-57
2021/06/16 09:23:43;;;;;;;5.07;2.58;;;;;;;;;;4372046;32;20206;-58
2021/06/16 09:26:11;;;;;;;2.72;2.33;;;;;;;;;;4373603;32;20222;-57
2021/06/16 09:28:49;;;;;;;7.32;2.33;;;;;;;;;;4373975;32;20228;-57
2021/06/16 09:31:16;;;;;;;4.22;2.33;;;;;;;;;;4368164;32;20339;-57
2021/06/16 09:33:42;;;;;;;3.60;2.50;;;;;;;;;;4373497;32;20670;-57
2021/06/16 09:36:26;;;;;;;6.05;1.73;;;;;;;;;;4373058;32;20218;-58
2021/06/16 09:38:52;;;;;;;4.60;2.90;;;;;;;;;;4373348;32;20281;-58
2021/06/16 09:41:21;;;;;;;4.03;2.10;;;;;;;;;;4373864;32;20222;-57
2021/06/16 09:43:48;;;;;;;8.32;2.17;;;;;;;;;;4373480;32;20318;-57
2021/06/16 09:46:14;;;;;;;6.20;2.72;;;;;;;;;;4373818;32;20355;-58
2021/06/16 09:48:42;;;;;;;10.55;2.60;;;;;;;;;;4372932;32;20514;-58
2021/06/16 09:51:13;;;;;;;3.97;2.28;;;;;;;;;;4372594;32;20571;-58
2021/06/16 09:54:13;;;;;;;4.47;2.08;;;;;;;;;;4372948;32;20211;-58
2021/06/16 09:56:42;;;;;;;6.18;2.85;;;;;;;;;;4373456;32;20210;-56
2021/06/16 09:59:07;;;;;;;9.60;2.58;;;;;;;;;;4373109;32;20277;-56
2021/06/16 10:01:46;;;;;;;2.75;2.20;;;;;;;;;;4373416;32;20599;-57
2021/06/16 10:04:35;;;;;;;3.22;2.10;;;;;;;;;;4373068;32;20210;-56
2021/06/16 10:07:10;;;;;;;5.80;2.17;;;;;;;;;;4373461;32;20245;-56
2021/06/16 10:09:38;;;;;;;4.15;2.30;;;;;;;;;;4371739;32;20666;-57
2021/06/16 10:12:04;;;;;;;3.35;2.22;;;;;;;;;;4373118;32;20340;-57
2021/06/16 10:14:31;;;;;;;10.73;2.83;;;;;;;;;;4372201;32;20235;-57
2021/06/16 10:16:57;;;;;;;8.15;2.60;;;;;;;;;;4366150;32;20280;-57
2021/06/16 10:19:24;;;;;;;4.07;2.30;;;;;;;;;;4358120;32;20210;-57
2021/06/16 10:21:50;;;;;;;4.95;2.03;;;;;;;;;;4358053;32;20222;-57
2021/06/16 10:24:15;;;;;;;2.65;2.12;;;;;;;;;;4357766;32;20233;-57
2021/06/16 10:26:42;;;;;;;5.93;2.62;;;;;;;;;;4358236;32;20554;-57
2021/06/16 10:29:12;;;;;;;4.95;2.58;;;;;;;;;;4356500;32;20214;-58
2021/06/16 10:31:41;;;;;;;3.85;2.30;;;;;;;;;;4362169;32;20278;-57
2021/06/16 10:34:07;;;;;;;6.45;3.45;;;;;;;;;;4357089;32;20304;-56
2021/06/16 10:36:33;;;;;;;6.03;2.53;;;;;;;;;;4357943;32;20615;-57
2021/06/16 10:38:59;;;;;;;4.12;2.55;;;;;;;;;;4357852;32;20236;-57
2021/06/16 10:41:43;;;;;;;12.63;3.55;;;;;;;;;;4358182;32;20277;-58
2021/06/16 10:44:12;;;;;;;4.40;3.10;;;;;;;;;;4357721;32;20210;-57
2021/06/16 10:46:52;;;;;;;4.90;3.37;;;;;;;;;;4357866;32;20222;-57
2021/06/16 10:49:50;;;;;;;5.70;2.67;;;;;;;;;;4358807;32;20218;-58
2021/06/16 10:52:22;;;;;;;2.85;2.33;;;;;;;;;;4372809;32;20230;-57
2021/06/16 10:54:58;;;;;;;6.50;2.80;;;;;;;;;;4372532;32;20271;-57
2021/06/16 10:57:23;;;;;;;4.00;2.15;;;;;;;;;;4372658;32;20469;-58
2021/06/16 10:59:50;;;;;;;4.20;2.20;;;;;;;;;;4372904;32;20206;-57
2021/06/16 11:02:24;;;;;;;2.67;2.22;;;;;;;;;;4373155;32;20256;-57
2021/06/16 11:04:51;;;;;;;11.80;3.08;;;;;;;;;;4372689;32;20402;-57
2021/06/16 11:07:31;;;;;;;2.42;1.98;;;;;;;;;;4372336;32;20218;-57
2021/06/16 11:09:59;;;;;;;4.68;2.37;;;;;;;;;;4372075;32;20248;-57
2021/06/16 11:12:42;;;;;;;4.72;2.83;;;;;;;;;;4372704;32;20230;-58
2021/06/16 11:15:08;;;;;;;3.47;2.60;;;;;;;;;;4372802;32;20453;-58
2021/06/16 11:17:34;;;;;;;4.30;2.90;;;;;;;;;;4372746;32;20726;-57
2021/06/16 11:20:14;;;;;;;4.20;2.22;;;;;;;;;;4372368;32;20226;-57
2021/06/16 11:22:48;;;;;;;5.45;2.40;;;;;;;;;;4372454;32;20237;-57
2021/06/16 11:25:34;;;;;;;8.10;2.47;;;;;;;;;;4372778;32;20280;-57
2021/06/16 11:28:07;;;;;;;5.50;2.12;;;;;;;;;;4372507;32;20680;-57
2021/06/16 11:30:54;;;;;;;3.22;2.15;;;;;;;;;;4368368;32;20214;-57
2021/06/16 11:33:22;;;;;;;3.28;2.00;;;;;;;;;;4372451;32;20616;-57
2021/06/16 11:35:51;;;;;;;220.68;24.63;;;;;;;;;;4372210;32;20240;-58
2021/06/16 11:38:19;;;;;;;170.43;17.80;;;;;;;;;;4372435;32;20325;-58
2021/06/16 11:41:11;;;;;;;127.97;11.73;;;;;;;;;;4372537;32;20315;-58
2021/06/16 11:44:04;;;;;;;26.17;4.80;;;;;;;;;;4371317;32;20226;-58
2021/06/16 11:46:39;;;;;;;8.98;2.55;;;;;;;;;;4374565;32;20210;-58
2021/06/16 11:49:16;;;;;;;14.05;3.03;;;;;;;;;;4375421;32;20210;-57
2021/06/16 11:51:44;;;;;;;3.42;2.47;;;;;;;;;;4374721;32;20213;-57
2021/06/16 11:54:24;;;;;;;10.38;2.67;;;;;;;;;;4374444;32;20220;-57
2021/06/16 11:56:57;;;;;;;4.07;2.03;;;;;;;;;;4375644;32;20235;-57
2021/06/16 11:59:37;;;;;;;7.15;2.15;;;;;;;;;;4375310;32;20210;-57
2021/06/16 12:02:26;;;;;;;4.05;2.33;;;;;;;;;;4374339;32;20233;-57
2021/06/16 12:05:10;;;;;;;7.70;2.70;;;;;;;;;;4375181;32;20210;-57
2021/06/16 12:07:39;;;;;;;7.30;2.80;;;;;;;;;;4374516;32;20237;-58
2021/06/16 12:10:08;;;;;;;2.47;1.85;;;;;;;;;;4375198;32;20244;-58
2021/06/16 12:12:53;;;;;;;4.72;2.50;;;;;;;;;;4374909;32;20839;-56
2021/06/16 12:15:25;;;;;;;4.18;2.50;;;;;;;;;;4375009;32;20211;-56
2021/06/16 12:18:01;;;;;;;9.40;2.65;;;;;;;;;;4374719;32;20238;-56
2021/06/16 12:20:29;;;;;;;3.22;1.90;;;;;;;;;;4375106;32;20226;-57
2021/06/16 12:22:55;;;;;;;7.15;2.40;;;;;;;;;;4374831;32;20226;-57
2021/06/16 12:25:25;;;;;;;3.90;1.80;;;;;;;;;;4374523;32;20454;-57
2021/06/16 12:27:51;;;;;;;3.60;2.28;;;;;;;;;;4374443;32;20257;-57
2021/06/16 12:30:21;;;;;;;4.75;1.98;;;;;;;;;;4371519;32;20219;-57
2021/06/16 12:33:38;;;;;;;3.55;2.33;;;;;;;;;;4374624;32;20268;-57
2021/06/16 12:36:08;;;;;;;4.68;2.28;;;;;;;;;;4374467;32;20268;-57
2021/06/16 12:38:47;;;;;;;3.83;2.10;;;;;;;;;;4375018;32;20346;-57
2021/06/16 12:41:24;;;;;;;8.98;2.33;;;;;;;;;;4375157;32;20240;-57
2021/06/16 12:43:51;;;;;;;5.53;2.35;;;;;;;;;;4375280;32;20229;-56
2021/06/16 12:46:17;;;;;;;4.60;2.10;;;;;;;;;;4374622;32;20284;-57
2021/06/16 12:48:42;;;;;;;6.78;2.65;;;;;;;;;;4373709;32;20241;-58
2021/06/16 12:51:08;;;;;;;4.93;2.62;;;;;;;;;;4375078;32;20438;-57
2021/06/16 12:53:39;;;;;;;3.87;2.10;;;;;;;;;;4375098;32;20366;-57
2021/06/16 12:56:05;;;;;;;5.45;2.60;;;;;;;;;;4373677;32;20352;-56
2021/06/16 12:58:44;;;;;;;5.82;2.65;;;;;;;;;;4374767;32;20214;-56
2021/06/16 13:01:16;;;;;;;6.72;2.28;;;;;;;;;;4374882;32;20297;-57
2021/06/16 13:03:47;;;;;;;5.25;2.72;;;;;;;;;;4374188;32;20244;-57
2021/06/16 13:06:13;;;;;;;4.30;2.50;;;;;;;;;;4374484;32;20241;-57
2021/06/16 13:08:40;;;;;;;5.53;2.92;;;;;;;;;;4373992;32;20211;-58
2021/06/16 13:11:24;;;;;;;7.70;2.58;;;;;;;;;;4374929;32;20260;-58
2021/06/16 13:14:32;;;;;;;4.97;2.87;;;;;;;;;;4373984;32;20222;-57
2021/06/16 13:17:08;;;;;;;8.65;3.42;;;;;;;;;;4374512;32;20276;-56
2021/06/16 13:19:59;;;;;;;4.65;2.65;;;;;;;;;;4372955;32;20324;-57
2021/06/16 13:22:43;;;;;;;10.75;2.70;;;;;;;;;;4373084;32;20218;-56
2021/06/16 13:25:22;;;;;;;4.22;2.37;;;;;;;;;;4373890;32;20668;-57
2021/06/16 13:27:55;;;;;;;7.32;2.62;;;;;;;;;;4374024;32;20353;-57
2021/06/16 13:30:32;;;;;;;13.00;2.90;;;;;;;;;;4370169;32;20302;-58
2021/06/16 13:32:59;;;;;;;7.47;2.78;;;;;;;;;;4373879;32;20392;-57
2021/06/16 13:35:27;;;;;;;7.05;2.08;;;;;;;;;;4373732;32;20333;-58
2021/06/16 13:37:53;;;;;;;4.47;3.28;;;;;;;;;;4374004;32;20221;-57
2021/06/16 13:40:19;;;;;;;4.32;2.40;;;;;;;;;;4373820;32;20298;-57
2021/06/16 13:42:53;;;;;;;4.18;2.90;;;;;;;;;;4373568;32;20250;-57
2021/06/16 13:45:21;;;;;;;2.53;2.00;;;;;;;;;;4373882;32;20210;-57
2021/06/16 13:47:47;;;;;;;2.78;2.08;;;;;;;;;;4374157;32;20246;-57
2021/06/16 13:50:14;;;;;;;8.75;2.08;;;;;;;;;;4373814;32;20198;-57
2021/06/16 13:52:40;;;;;;;4.75;1.62;;;;;;;;;;4373672;32;20238;-57
2021/06/16 13:55:06;;;;;;;2.40;1.92;;;;;;;;;;4372205;32;20252;-57
2021/06/16 13:57:32;;;;;;;5.85;2.20;;;;;;;;;;4374010;32;20226;-57
2021/06/16 13:59:57;;;;;;;6.03;2.75;;;;;;;;;;4373910;32;20237;-56
2021/06/16 14:02:23;;;;;;;2.67;1.80;;;;;;;;;;4374114;32;20229;-59
2021/06/16 14:04:48;;;;;;;2.33;1.65;;;;;;;;;;4374044;32;20198;-55
2021/06/16 14:07:15;;;;;;;3.08;1.67;;;;;;;;;;4373437;32;20293;-56
2021/06/16 14:09:40;;;;;;;4.47;2.20;;;;;;;;;;4372836;32;20286;-58
2021/06/16 14:12:06;;;;;;;3.78;2.22;;;;;;;;;;4373645;32;20241;-57
2021/06/16 14:14:31;;;;;;;2.10;1.73;;;;;;;;;;4372431;32;20222;-57
2021/06/16 14:16:57;;;;;;;3.55;1.83;;;;;;;;;;4367430;32;20250;-56
2021/06/16 14:19:23;;;;;;;3.25;1.90;;;;;;;;;;4358357;32;20206;-57
2021/06/16 14:21:49;;;;;;;13.07;2.78;;;;;;;;;;4358482;32;20246;-56
2021/06/16 14:24:16;;;;;;;4.43;2.17;;;;;;;;;;4358380;32;20214;-57
2021/06/16 14:26:42;;;;;;;3.53;1.62;;;;;;;;;;4358153;32;20631;-58
2021/06/16 14:29:08;;;;;;;3.85;2.10;;;;;;;;;;4359788;32;20619;-57
2021/06/16 14:31:34;;;;;;;3.12;1.85;;;;;;;;;;4362704;32;20289;-57
2021/06/16 14:33:59;;;;;;;16.98;2.35;;;;;;;;;;4357851;32;20206;-57
2021/06/16 14:36:25;;;;;;;4.53;1.50;;;;;;;;;;4358494;32;20230;-57
2021/06/16 14:38:50;;;;;;;4.78;2.33;;;;;;;;;;4356863;32;20643;-57
2021/06/16 14:41:16;;;;;;;10.07;2.25;;;;;;;;;;4361804;32;20305;-57
2021/06/16 14:43:41;;;;;;;9.50;2.08;;;;;;;;;;4367632;32;20244;-58
2021/06/16 14:46:07;;;;;;;2.58;1.70;;;;;;;;;;4361757;32;20306;-57
2021/06/16 14:48:32;;;;;;;3.33;1.90;;;;;;;;;;4357895;32;20206;-57
2021/06/16 14:50:58;;;;;;;3.03;1.85;;;;;;;;;;4356700;32;20443;-57